createdAt,value
2023-03-10T00:01:35.093Z,101358.75
2023-03-10T00:04:39.167Z,101367.69
2023-03-10T00:07:43.320Z,101357.84
2023-03-10T00:10:48.110Z,101359.22
2023-03-10T00:13:52.925Z,101372.97
2023-03-10T00:16:56.773Z,101382.31
2023-03-10T00:20:00.840Z,101385.41
2023-03-10T00:23:05.750Z,101386.63
2023-03-10T00:26:13.432Z,101382.25
2023-03-10T00:29:18.605Z,101391.88
2023-03-10T00:32:22.751Z,101399.13
2023-03-10T00:35:26.826Z,101392.63
2023-03-10T00:38:30.675Z,101388.56
2023-03-10T00:41:39.835Z,101410.81
2023-03-10T00:44:43.953Z,101414.53
2023-03-10T00:47:48.002Z,101407.66
2023-03-10T00:50:52.205Z,101404.50
2023-03-10T00:53:56.795Z,101410.97
2023-03-10T00:57:00.805Z,101415.31
2023-03-10T01:00:07.760Z,101429.94
2023-03-10T01:03:11.586Z,101422.50
2023-03-10T01:06:16.171Z,101423.38
2023-03-10T01:09:20.044Z,101429.38
2023-03-10T01:12:23.932Z,101433.34
2023-03-10T01:15:28.113Z,101430.78
2023-03-10T01:18:32.653Z,101432.25
2023-03-10T01:21:38.956Z,101424.00
2023-03-10T01:24:42.928Z,101433.28
2023-03-10T01:27:47.067Z,101433.56
2023-03-10T01:30:51.725Z,101417.00
2023-03-10T01:33:56.417Z,101436.56
2023-03-10T01:37:00.869Z,101433.13
2023-03-10T01:40:06.272Z,101441.09
2023-03-10T01:43:34.081Z,101440.41
2023-03-10T01:46:51.378Z,101448.44
2023-03-10T01:50:08.076Z,101456.31
2023-03-10T01:53:14.068Z,101443.63
2023-03-10T01:56:18.792Z,101454.44
2023-03-10T01:59:23.512Z,101472.78
2023-03-10T02:02:28.475Z,101461.09
2023-03-10T02:05:33.353Z,101450.34
2023-03-10T02:08:47.478Z,101454.28
2023-03-10T02:11:52.094Z,101441.97
2023-03-10T02:14:57.978Z,101424.75
2023-03-10T02:18:04.496Z,101427.47
2023-03-10T02:21:27.881Z,101446.03
2023-03-10T02:24:46.786Z,101463.69
2023-03-10T02:27:51.781Z,101440.75
2023-03-10T02:30:58.973Z,101453.09
2023-03-10T02:34:04.881Z,101457.47
2023-03-10T02:37:22.855Z,101442.47
2023-03-10T02:40:41.232Z,101474.19
2023-03-10T02:43:49.945Z,101461.84
2023-03-10T02:47:01.532Z,101462.72
2023-03-10T02:50:09.229Z,101453.94
2023-03-10T02:53:21.709Z,101436.25
2023-03-10T02:56:27.622Z,101450.44
2023-03-10T02:59:34.175Z,101411.66
2023-03-10T03:02:38.844Z,101440.41
2023-03-10T03:05:43.947Z,101460.94
2023-03-10T03:08:48.034Z,101470.72
2023-03-10T03:11:56.547Z,101468.06
2023-03-10T03:15:00.584Z,101483.06
2023-03-10T03:18:06.932Z,101476.88
2023-03-10T03:21:16.572Z,101472.50
2023-03-10T03:24:21.975Z,101469.84
2023-03-10T03:27:25.920Z,101474.25
2023-03-10T03:30:31.414Z,101459.28
2023-03-10T03:33:35.740Z,101455.72
2023-03-10T03:36:39.863Z,101457.44
2023-03-10T03:39:45.292Z,101472.34
2023-03-10T03:42:51.661Z,101482.88
2023-03-10T03:45:57.846Z,101475.88
2023-03-10T03:49:02.603Z,101476.00
2023-03-10T03:52:08.223Z,101467.22
2023-03-10T03:55:14.070Z,101481.31
2023-03-10T03:58:19.578Z,101476.00
2023-03-10T04:01:24.697Z,101476.00
2023-03-10T04:04:32.444Z,101472.50
2023-03-10T04:07:39.240Z,101469.84
2023-03-10T04:10:52.169Z,101479.56
2023-03-10T04:13:58.725Z,101470.72
2023-03-10T04:17:05.551Z,101468.06
2023-03-10T04:20:12.458Z,101475.88
2023-03-10T04:23:18.758Z,101467.16
2023-03-10T04:26:23.412Z,101471.47
2023-03-10T04:29:28.295Z,101478.53
2023-03-10T04:32:34.345Z,101477.47
2023-03-10T04:36:31.872Z,101487.94
2023-03-10T04:39:40.730Z,101462.41
2023-03-10T04:42:45.186Z,101484.66
2023-03-10T04:45:51.839Z,101459.16
2023-03-10T04:48:59.632Z,101480.13
2023-03-10T04:52:04.648Z,101473.97
2023-03-10T04:55:09.570Z,101459.09
2023-03-10T04:58:15.824Z,101429.09
2023-03-10T05:01:21.015Z,101472.38
2023-03-10T05:04:29.954Z,101451.22
2023-03-10T05:07:34.156Z,101473.19
2023-03-10T05:10:45.151Z,101466.13
2023-03-10T05:13:50.021Z,101462.34
2023-03-10T05:16:54.766Z,101462.53
2023-03-10T05:19:59.813Z,101472.34
2023-03-10T05:23:04.876Z,101449.41
2023-03-10T05:26:11.841Z,101473.19
2023-03-10T05:29:15.897Z,101468.63
2023-03-10T05:32:25.290Z,101474.00
2023-03-10T05:35:29.611Z,101425.44
2023-03-10T05:38:35.752Z,101477.47
2023-03-10T05:41:42.234Z,101470.34
2023-03-10T05:44:47.347Z,101464.88
2023-03-10T05:47:51.863Z,101457.03
2023-03-10T05:51:09.395Z,101477.34
2023-03-10T05:54:14.518Z,101436.84
2023-03-10T05:57:19.258Z,101479.19
2023-03-10T06:00:24.335Z,101458.72
2023-03-10T06:03:37.433Z,101481.66
2023-03-10T06:06:41.630Z,101487.69
2023-03-10T06:09:46.709Z,101477.97
2023-03-10T06:12:51.384Z,101473.72
2023-03-10T06:15:58.376Z,101472.03
2023-03-10T06:19:02.782Z,101471.03
2023-03-10T06:22:07.074Z,101468.31
2023-03-10T06:25:11.966Z,101471.69
2023-03-10T06:28:17.489Z,101478.94
2023-03-10T06:31:25.514Z,101480.91
2023-03-10T06:34:30.116Z,101473.13
2023-03-10T06:37:34.691Z,101469.78
2023-03-10T06:40:39.419Z,101474.94
2023-03-10T06:43:44.342Z,101475.56
2023-03-10T06:46:48.785Z,101472.09
2023-03-10T06:49:55.575Z,101472.84
2023-03-10T06:52:59.899Z,101460.50
2023-03-10T06:56:07.473Z,101466.53
2023-03-10T06:59:11.886Z,101454.91
2023-03-10T07:02:16.397Z,101461.97
2023-03-10T07:05:20.475Z,101474.38
2023-03-10T07:08:24.841Z,101473.44
2023-03-10T07:11:31.062Z,101450.41
2023-03-10T07:14:37.990Z,101427.34
2023-03-10T07:17:42.367Z,101443.81
2023-03-10T07:20:46.928Z,101396.16
2023-03-10T07:23:51.271Z,101440.31
2023-03-10T07:26:55.920Z,101451.34
2023-03-10T07:29:59.801Z,101478.84
2023-03-10T07:33:03.991Z,101404.50
2023-03-10T07:36:10.669Z,101439.97
2023-03-10T07:39:15.400Z,101476.81
2023-03-10T07:42:20.024Z,101469.59
2023-03-10T07:45:25.348Z,101455.22
2023-03-10T07:48:29.403Z,101474.97
2023-03-10T07:51:34.310Z,101423.69
2023-03-10T07:54:39.013Z,101454.34
2023-03-10T07:57:43.860Z,101491.38
2023-03-10T08:00:54.784Z,101449.59
2023-03-10T08:03:59.277Z,101483.41
2023-03-10T08:07:03.823Z,101499.50
2023-03-10T08:10:08.952Z,101489.09
2023-03-10T08:13:13.577Z,101481.28
2023-03-10T08:16:21.045Z,101497.13
2023-03-10T08:19:26.829Z,101497.22
2023-03-10T08:22:31.636Z,101461.88
2023-03-10T08:25:36.647Z,101482.31
2023-03-10T08:28:41.168Z,101478.91
2023-03-10T08:31:45.816Z,101462.16
2023-03-10T08:34:50.154Z,101456.53
2023-03-10T08:37:55.405Z,101456.53
2023-03-10T08:41:10.048Z,101458.94
2023-03-10T08:44:16.408Z,101465.25
2023-03-10T08:47:21.629Z,101476.53
2023-03-10T08:50:26.085Z,101465.91
2023-03-10T08:53:30.584Z,101472.72
2023-03-10T08:56:35.950Z,101461.09
2023-03-10T08:59:40.390Z,101447.25
2023-03-10T09:02:44.738Z,101449.88
2023-03-10T09:05:51.098Z,101405.00
2023-03-10T09:08:55.836Z,101451.59
2023-03-10T09:12:00.978Z,101433.28
2023-03-10T09:15:05.743Z,101436.47
2023-03-10T09:18:11.626Z,101433.22
2023-03-10T09:21:19.386Z,101431.75
2023-03-10T09:24:23.674Z,101435.34
2023-03-10T09:27:28.163Z,101438.56
2023-03-10T09:30:32.216Z,101437.19
2023-03-10T09:33:36.780Z,101440.53
2023-03-10T09:36:41.065Z,101445.31
2023-03-10T09:39:44.904Z,101442.75
2023-03-10T09:42:52.685Z,101446.31
2023-03-10T09:46:14.012Z,101457.53
2023-03-10T09:49:34.687Z,101458.56
2023-03-10T09:52:49.046Z,101444.59
2023-03-10T09:55:54.116Z,101440.47
2023-03-10T09:59:12.068Z,101438.72
2023-03-10T10:02:27.187Z,101438.72
2023-03-10T10:05:34.451Z,101434.91
2023-03-10T10:09:04.676Z,101417.91
2023-03-10T10:12:14.669Z,101423.97
2023-03-10T10:15:23.188Z,101425.47
2023-03-10T10:18:44.341Z,101416.56
2023-03-10T10:22:02.545Z,101415.63
2023-03-10T10:25:09.943Z,101420.41
2023-03-10T10:28:49.168Z,101407.63
2023-03-10T10:32:14.232Z,101402.13
2023-03-10T10:35:25.873Z,101398.00
2023-03-10T10:38:32.441Z,101397.16
2023-03-10T10:41:38.640Z,101404.81
2023-03-10T10:44:47.065Z,101379.41
2023-03-10T10:47:53.475Z,101372.97
2023-03-10T10:50:57.836Z,101376.16
2023-03-10T10:54:09.429Z,101364.13
2023-03-10T10:57:22.514Z,101369.34
2023-03-10T11:00:28.813Z,101375.13
2023-03-10T11:03:35.223Z,101366.28
2023-03-10T11:06:41.450Z,101373.63
2023-03-10T11:09:45.808Z,101376.09
2023-03-10T11:13:10.499Z,101383.16
2023-03-10T11:16:38.270Z,101368.06
2023-03-10T11:20:03.530Z,101386.06
2023-03-10T11:23:14.853Z,101397.94
2023-03-10T11:26:33.084Z,101367.56
2023-03-10T11:29:58.501Z,101399.84
2023-03-10T11:33:06.624Z,101408.50
2023-03-10T11:36:27.179Z,101397.44
2023-03-10T11:39:31.473Z,101405.03
2023-03-10T11:42:57.098Z,101403.16
2023-03-10T11:46:34.985Z,101388.41
2023-03-10T11:49:44.458Z,101400.91
2023-03-10T11:52:50.772Z,101385.13
2023-03-10T11:55:56.451Z,101409.03
2023-03-10T11:59:12.675Z,101409.56
2023-03-10T12:02:28.251Z,101396.38
2023-03-10T12:05:47.166Z,101369.00
2023-03-10T12:08:55.949Z,101394.13
2023-03-10T12:12:02.358Z,101386.41
2023-03-10T12:15:21.510Z,101371.09
2023-03-10T12:18:26.981Z,101382.09
2023-03-10T12:21:32.666Z,101397.88
2023-03-10T12:24:54.676Z,101396.59
2023-03-10T12:28:21.446Z,101407.72
2023-03-10T12:31:41.255Z,101398.28
2023-03-10T12:34:47.219Z,101400.69
2023-03-10T12:38:11.968Z,101356.41
2023-03-10T12:41:27.952Z,101391.34
2023-03-10T12:44:50.719Z,101388.59
2023-03-10T12:48:08.357Z,101332.72
2023-03-10T12:51:18.495Z,101402.88
2023-03-10T12:54:24.237Z,101406.41
2023-03-10T12:57:40.857Z,101401.03
2023-03-10T13:00:55.612Z,101413.81
2023-03-10T13:04:07.988Z,101356.06
2023-03-10T13:07:18.169Z,101425.69
2023-03-10T13:10:26.010Z,101426.16
2023-03-10T13:13:38.734Z,101440.59
2023-03-10T13:16:54.231Z,101438.91
2023-03-10T13:19:59.772Z,101465.84
2023-03-10T13:23:04.518Z,101458.56
2023-03-10T13:26:19.031Z,101441.78
2023-03-10T13:29:24.515Z,101441.06
2023-03-10T13:32:28.719Z,101446.28
2023-03-10T13:35:36.788Z,101459.44
2023-03-10T13:38:44.228Z,101459.72
2023-03-10T13:41:50.772Z,101444.63
2023-03-10T13:44:56.205Z,101409.66
2023-03-10T13:48:03.969Z,101400.75
2023-03-10T13:51:22.028Z,101442.31
2023-03-10T13:54:32.428Z,101421.13
2023-03-10T13:57:38.109Z,101398.56
2023-03-10T14:00:48.030Z,101397.22
2023-03-10T14:04:00.833Z,101400.19
2023-03-10T14:07:10.921Z,101357.47
2023-03-10T14:10:20.726Z,101372.53
2023-03-10T14:13:45.951Z,101378.34
2023-03-10T14:17:00.102Z,101333.63
2023-03-10T14:20:05.994Z,101353.41
2023-03-10T14:23:23.117Z,101366.09
2023-03-10T14:26:27.507Z,101332.72
2023-03-10T14:29:33.279Z,101338.88
2023-03-10T14:32:36.861Z,101361.50
2023-03-10T14:35:41.472Z,101337.53
2023-03-10T14:38:49.264Z,101318.41
2023-03-10T14:41:57.407Z,101307.75
2023-03-10T14:45:07.748Z,101327.63
2023-03-10T14:48:16.448Z,101315.59
2023-03-10T14:51:34.357Z,101309.56
2023-03-10T14:54:39.865Z,101310.94
2023-03-10T14:57:50.397Z,101325.00
2023-03-10T15:00:55.253Z,101281.88
2023-03-10T15:04:02.796Z,101296.56
2023-03-10T15:07:11.759Z,101279.28
2023-03-10T15:10:18.570Z,101282.72
2023-03-10T15:13:25.299Z,101265.47
2023-03-10T15:16:29.862Z,101258.75
2023-03-10T15:19:34.566Z,101218.88
2023-03-10T15:22:38.948Z,101236.22
2023-03-10T15:25:45.611Z,101260.16
2023-03-10T15:28:49.974Z,101232.38
2023-03-10T15:31:54.013Z,101251.03
2023-03-10T15:34:58.690Z,101210.13
2023-03-10T15:38:03.440Z,101211.38
2023-03-10T15:41:08.094Z,101255.63
2023-03-10T15:44:12.579Z,101232.28
2023-03-10T15:47:17.243Z,101237.84
2023-03-10T15:50:23.176Z,101252.94
2023-03-10T15:53:27.682Z,101232.78
2023-03-10T15:56:32.196Z,101241.84
2023-03-10T15:59:37.590Z,101237.72
2023-03-10T16:02:42.125Z,101241.69
2023-03-10T16:05:50.273Z,101257.16
2023-03-10T16:08:54.678Z,101219.38
2023-03-10T16:11:59.449Z,101261.34
2023-03-10T16:15:03.504Z,101258.22
2023-03-10T16:18:07.204Z,101280.41
2023-03-10T16:21:11.908Z,101289.22
2023-03-10T16:24:15.847Z,101263.84
2023-03-10T16:27:19.849Z,101274.72
2023-03-10T16:30:28.846Z,101289.75
2023-03-10T16:33:33.508Z,101278.63
2023-03-10T16:36:38.049Z,101310.59
2023-03-10T16:39:42.426Z,101279.72
2023-03-10T16:42:47.213Z,101311.59
2023-03-10T16:45:51.927Z,101302.59
2023-03-10T16:48:57.249Z,101333.50
2023-03-10T16:52:03.696Z,101338.16
2023-03-10T16:55:10.218Z,101319.47
2023-03-10T16:58:15.079Z,101326.41
2023-03-10T17:01:20.527Z,101320.69
2023-03-10T17:04:24.537Z,101297.34
2023-03-10T17:07:28.478Z,101313.53
2023-03-10T17:10:34.219Z,101334.00
2023-03-10T17:13:39.492Z,101323.59
2023-03-10T17:16:45.595Z,101301.06
2023-03-10T17:19:51.876Z,101321.78
2023-03-10T17:22:56.215Z,101307.28
2023-03-10T17:26:02.012Z,101315.28
2023-03-10T17:29:06.623Z,101293.66
2023-03-10T17:32:10.791Z,101321.81
2023-03-10T17:35:15.381Z,101316.06
2023-03-10T17:38:19.347Z,101318.53
2023-03-10T17:41:23.973Z,101308.19
2023-03-10T17:44:27.910Z,101305.34
2023-03-10T17:47:33.161Z,101322.59
2023-03-10T17:50:36.996Z,101320.44
2023-03-10T17:53:41.204Z,101317.34
2023-03-10T17:56:45.477Z,101322.94
2023-03-10T17:59:52.036Z,101321.81
2023-03-10T18:02:56.285Z,101324.56
2023-03-10T18:06:00.555Z,101318.59
2023-03-10T18:09:07.204Z,101314.75
2023-03-10T18:12:11.995Z,101320.44
2023-03-10T18:15:16.779Z,101324.50
2023-03-10T18:18:20.956Z,101302.31
2023-03-10T18:21:26.272Z,101332.09
2023-03-10T18:24:30.663Z,101339.03
2023-03-10T18:27:35.076Z,101336.69
2023-03-10T18:30:44.500Z,101337.84
2023-03-10T18:33:49.473Z,101334.19
2023-03-10T18:36:53.924Z,101341.19
2023-03-10T18:39:59.117Z,101340.41
2023-03-10T18:43:02.856Z,101343.03
2023-03-10T18:46:07.556Z,101326.59
2023-03-10T18:49:12.087Z,101325.63
2023-03-10T18:52:19.468Z,101342.13
2023-03-10T18:55:23.403Z,101340.66
2023-03-10T18:58:27.419Z,101354.94
2023-03-10T19:01:33.070Z,101360.50
2023-03-10T19:04:38.228Z,101342.47
2023-03-10T19:07:42.343Z,101371.03
2023-03-10T19:10:46.387Z,101387.84
2023-03-10T19:13:51.169Z,101390.16
2023-03-10T19:16:55.323Z,101399.81
2023-03-10T19:19:59.719Z,101403.09
2023-03-10T19:23:03.650Z,101405.13
2023-03-10T19:26:09.859Z,101404.78
2023-03-10T19:29:14.076Z,101404.78
2023-03-10T19:32:17.826Z,101304.44
2023-03-10T19:35:22.160Z,101413.16
2023-03-10T19:38:28.902Z,101415.97
2023-03-10T19:41:32.829Z,101418.34
2023-03-10T19:44:39.597Z,101428.06
2023-03-10T19:47:44.189Z,101427.81
2023-03-10T19:50:55.728Z,101437.03
2023-03-10T19:54:02.610Z,101421.84
2023-03-10T19:57:08.431Z,101421.81
2023-03-10T20:00:16.949Z,101463.06
2023-03-10T20:03:21.571Z,101436.63
2023-03-10T20:06:26.587Z,101424.56
2023-03-10T20:09:30.585Z,101451.69
2023-03-10T20:12:34.892Z,101466.91
2023-03-10T20:15:39.766Z,101471.66
2023-03-10T20:18:43.730Z,101434.38
2023-03-10T20:21:48.124Z,101440.19
2023-03-10T20:24:52.077Z,101473.59
2023-03-10T20:27:56.974Z,101472.88
2023-03-10T20:31:01.094Z,101489.59
2023-03-10T20:34:07.784Z,101495.81
2023-03-10T20:37:11.970Z,101487.88
2023-03-10T20:40:24.719Z,101478.44
2023-03-10T20:43:28.912Z,101490.53
2023-03-10T20:46:33.656Z,101506.41
2023-03-10T20:49:37.655Z,101460.56
2023-03-10T20:52:44.191Z,101506.28
2023-03-10T20:55:48.202Z,101465.28
2023-03-10T20:58:51.861Z,101434.28
2023-03-10T21:01:55.691Z,101470.19
2023-03-10T21:05:00.595Z,101474.06
2023-03-10T21:08:05.068Z,101472.31
2023-03-10T21:11:08.956Z,101515.97
2023-03-10T21:14:12.960Z,101499.31
2023-03-10T21:17:17.726Z,101497.69
2023-03-10T21:20:23.438Z,101527.38
2023-03-10T21:23:27.317Z,101539.00
2023-03-10T21:26:31.814Z,101541.88
2023-03-10T21:29:36.646Z,101553.25
2023-03-10T21:32:40.766Z,101534.50
2023-03-10T21:35:45.065Z,101539.81
2023-03-10T21:38:53.364Z,101532.59
2023-03-10T21:42:00.410Z,101532.94
2023-03-10T21:45:06.300Z,101541.03
2023-03-10T21:48:12.113Z,101535.72
2023-03-10T21:51:18.268Z,101539.63
2023-03-10T21:54:22.818Z,101527.28
2023-03-10T21:57:26.863Z,101536.00
2023-03-10T22:00:30.854Z,101544.63
2023-03-10T22:03:37.025Z,101546.97
2023-03-10T22:06:41.716Z,101553.94
2023-03-10T22:09:45.885Z,101556.34
2023-03-10T22:12:49.920Z,101555.28
2023-03-10T22:15:54.013Z,101540.13
2023-03-10T22:18:58.454Z,101557.50
2023-03-10T22:22:05.218Z,101571.81
2023-03-10T22:25:09.787Z,101571.94
2023-03-10T22:28:14.664Z,101578.50
2023-03-10T22:31:20.149Z,101550.66
2023-03-10T22:34:24.123Z,101593.47
2023-03-10T22:37:28.410Z,101568.16
2023-03-10T22:40:32.960Z,101557.34
2023-03-10T22:43:37.323Z,101566.06
2023-03-10T22:46:45.159Z,101537.78
2023-03-10T22:49:49.304Z,101598.09
2023-03-10T22:52:53.212Z,101602.25
2023-03-10T22:55:57.778Z,101620.94
2023-03-10T22:59:04.567Z,101616.28
2023-03-10T23:02:11.547Z,101621.53
2023-03-10T23:05:16.628Z,101638.13
2023-03-10T23:08:21.410Z,101635.56
2023-03-10T23:11:25.726Z,101621.38
2023-03-10T23:14:29.631Z,101643.06
2023-03-10T23:17:33.722Z,101640.66
2023-03-10T23:20:42.338Z,101653.41
2023-03-10T23:23:48.578Z,101658.00
2023-03-10T23:26:52.553Z,101669.00
2023-03-10T23:29:56.428Z,101676.00
2023-03-10T23:33:00.621Z,101682.19
2023-03-10T23:36:04.501Z,101691.25
2023-03-10T23:39:11.861Z,101680.97
2023-03-10T23:42:15.911Z,101688.44
2023-03-10T23:45:22.484Z,101695.53
2023-03-10T23:48:26.657Z,101697.09
2023-03-10T23:51:31.517Z,101689.06
2023-03-10T23:54:36.077Z,101689.06
2023-03-10T23:57:40.132Z,101683.84
